sensor_id;sensor_type;location;lat;lon;timestamp;P1;durP1;ratioP1;P2;durP2;ratioP2
26864;SDS011;40618;51.166;10.322;2023-11-21T00:00:18;4.05;;;1.95;;
26864;SDS011;40618;51.166;10.322;2023-11-21T00:02:45;4.22;;;2.10;;
26864;SDS011;40618;51.166;10.322;2023-11-21T00:05:11;3.80;;;2.08;;
26864;SDS011;40618;51.166;10.322;2023-11-21T00:07:41;2.08;;;1.67;;
26864;SDS011;40618;51.166;10.322;2023-11-21T00:10:08;3.03;;;1.67;;
26864;SDS011;40618;51.166;10.322;2023-11-21T00:12:35;6.85;;;1.80;;
26864;SDS011;40618;51.166;10.322;2023-11-21T00:15:03;4.25;;;1.67;;
26864;SDS011;40618;51.166;10.322;2023-11-21T00:17:35;2.45;;;1.50;;
26864;SDS011;40618;51.166;10.322;2023-11-21T00:20:02;3.20;;;1.35;;
26864;SDS011;40618;51.166;10.322;2023-11-21T00:22:31;3.10;;;1.50;;
26864;SDS011;40618;51.166;10.322;2023-11-21T00:24:58;3.42;;;1.25;;
26864;SDS011;40618;51.166;10.322;2023-11-21T00:27:24;5.43;;;1.80;;
26864;SDS011;40618;51.166;10.322;2023-11-21T00:29:49;5.05;;;2.03;;
26864;SDS011;40618;51.166;10.322;2023-11-21T00:32:15;4.97;;;3.53;;
26864;SDS011;40618;51.166;10.322;2023-11-21T00:34:40;6.00;;;3.38;;
26864;SDS011;40618;51.166;10.322;2023-11-21T00:37:07;6.15;;;3.70;;
26864;SDS011;40618;51.166;10.322;2023-11-21T00:39:32;5.32;;;3.67;;
26864;SDS011;40618;51.166;10.322;2023-11-21T00:42:00;7.03;;;3.28;;
26864;SDS011;40618;51.166;10.322;2023-11-21T00:44:25;5.30;;;2.80;;
26864;SDS011;40618;51.166;10.322;2023-11-21T00:46:51;5.97;;;2.67;;
26864;SDS011;40618;51.166;10.322;2023-11-21T00:49:17;6.20;;;2.22;;
26864;SDS011;40618;51.166;10.322;2023-11-21T00:51:42;3.53;;;2.00;;
26864;SDS011;40618;51.166;10.322;2023-11-21T00:54:08;4.78;;;2.03;;
26864;SDS011;40618;51.166;10.322;2023-11-21T00:56:33;4.85;;;1.98;;
26864;SDS011;40618;51.166;10.322;2023-11-21T00:58:59;7.30;;;2.50;;
26864;SDS011;40618;51.166;10.322;2023-11-21T01:01:24;4.47;;;2.90;;
26864;SDS011;40618;51.166;10.322;2023-11-21T01:03:50;5.95;;;2.58;;
26864;SDS011;40618;51.166;10.322;2023-11-21T01:06:16;4.70;;;1.95;;
26864;SDS011;40618;51.166;10.322;2023-11-21T01:08:43;5.97;;;2.55;;
26864;SDS011;40618;51.166;10.322;2023-11-21T01:11:09;2.33;;;1.67;;
26864;SDS011;40618;51.166;10.322;2023-11-21T01:13:37;2.88;;;1.90;;
26864;SDS011;40618;51.166;10.322;2023-11-21T01:16:07;3.90;;;1.92;;
26864;SDS011;40618;51.166;10.322;2023-11-21T01:18:34;5.53;;;2.45;;
26864;SDS011;40618;51.166;10.322;2023-11-21T01:21:01;2.95;;;2.10;;
26864;SDS011;40618;51.166;10.322;2023-11-21T01:23:26;2.85;;;2.15;;
26864;SDS011;40618;51.166;10.322;2023-11-21T01:25:52;4.22;;;1.80;;
26864;SDS011;40618;51.166;10.322;2023-11-21T01:28:20;3.15;;;1.95;;
26864;SDS011;40618;51.166;10.322;2023-11-21T01:30:46;2.63;;;1.65;;
26864;SDS011;40618;51.166;10.322;2023-11-21T01:33:13;2.80;;;1.42;;
26864;SDS011;40618;51.166;10.322;2023-11-21T01:35:40;3.40;;;1.80;;
26864;SDS011;40618;51.166;10.322;2023-11-21T01:38:07;3.38;;;1.55;;
26864;SDS011;40618;51.166;10.322;2023-11-21T01:40:33;5.93;;;1.92;;
26864;SDS011;40618;51.166;10.322;2023-11-21T01:43:00;3.90;;;2.33;;
26864;SDS011;40618;51.166;10.322;2023-11-21T01:45:28;6.32;;;2.30;;
26864;SDS011;40618;51.166;10.322;2023-11-21T01:47:56;4.28;;;2.08;;
26864;SDS011;40618;51.166;10.322;2023-11-21T01:50:23;5.40;;;2.40;;
26864;SDS011;40618;51.166;10.322;2023-11-21T01:52:50;5.72;;;2.40;;
26864;SDS011;40618;51.166;10.322;2023-11-21T01:55:17;4.90;;;2.42;;
26864;SDS011;40618;51.166;10.322;2023-11-21T01:57:43;5.65;;;2.00;;
26864;SDS011;40618;51.166;10.322;2023-11-21T02:00:11;3.50;;;1.98;;
26864;SDS011;40618;51.166;10.322;2023-11-21T02:02:42;3.97;;;1.98;;
26864;SDS011;40618;51.166;10.322;2023-11-21T02:05:09;3.67;;;2.30;;
26864;SDS011;40618;51.166;10.322;2023-11-21T02:07:47;7.43;;;2.42;;
26864;SDS011;40618;51.166;10.322;2023-11-21T02:10:13;4.28;;;2.05;;
26864;SDS011;40618;51.166;10.322;2023-11-21T02:12:40;3.00;;;2.10;;
26864;SDS011;40618;51.166;10.322;2023-11-21T02:15:07;3.22;;;2.10;;
26864;SDS011;40618;51.166;10.322;2023-11-21T02:17:42;4.55;;;2.40;;
26864;SDS011;40618;51.166;10.322;2023-11-21T02:20:09;2.45;;;2.03;;
26864;SDS011;40618;51.166;10.322;2023-11-21T02:22:43;3.38;;;2.15;;
26864;SDS011;40618;51.166;10.322;2023-11-21T02:25:29;3.85;;;2.05;;
26864;SDS011;40618;51.166;10.322;2023-11-21T02:27:57;6.85;;;3.05;;
26864;SDS011;40618;51.166;10.322;2023-11-21T02:30:26;3.67;;;2.28;;
26864;SDS011;40618;51.166;10.322;2023-11-21T02:32:58;9.02;;;2.83;;
26864;SDS011;40618;51.166;10.322;2023-11-21T02:35:25;33.53;;;3.92;;
26864;SDS011;40618;51.166;10.322;2023-11-21T02:37:51;6.35;;;2.97;;
26864;SDS011;40618;51.166;10.322;2023-11-21T02:40:18;4.68;;;2.88;;
26864;SDS011;40618;51.166;10.322;2023-11-21T02:42:45;5.50;;;2.67;;
26864;SDS011;40618;51.166;10.322;2023-11-21T02:47:45;12.25;;;3.10;;
26864;SDS011;40618;51.166;10.322;2023-11-21T02:50:11;15.63;;;3.47;;
26864;SDS011;40618;51.166;10.322;2023-11-21T02:52:37;12.70;;;3.72;;
26864;SDS011;40618;51.166;10.322;2023-11-21T02:55:05;13.40;;;2.92;;
26864;SDS011;40618;51.166;10.322;2023-11-21T02:57:32;11.27;;;2.88;;
26864;SDS011;40618;51.166;10.322;2023-11-21T02:59:58;6.47;;;2.60;;
26864;SDS011;40618;51.166;10.322;2023-11-21T03:02:28;3.87;;;2.60;;
26864;SDS011;40618;51.166;10.322;2023-11-21T03:04:53;14.68;;;3.25;;
26864;SDS011;40618;51.166;10.322;2023-11-21T03:07:19;4.93;;;2.78;;
26864;SDS011;40618;51.166;10.322;2023-11-21T03:09:45;6.60;;;2.45;;
26864;SDS011;40618;51.166;10.322;2023-11-21T03:12:11;12.15;;;4.93;;
26864;SDS011;40618;51.166;10.322;2023-11-21T03:14:37;7.05;;;4.55;;
26864;SDS011;40618;51.166;10.322;2023-11-21T03:17:06;12.68;;;3.63;;
26864;SDS011;40618;51.166;10.322;2023-11-21T03:19:32;8.68;;;3.65;;
26864;SDS011;40618;51.166;10.322;2023-11-21T03:21:58;5.25;;;2.88;;
26864;SDS011;40618;51.166;10.322;2023-11-21T03:24:24;8.63;;;3.15;;
26864;SDS011;40618;51.166;10.322;2023-11-21T03:26:50;6.35;;;3.03;;
26864;SDS011;40618;51.166;10.322;2023-11-21T03:29:16;13.95;;;3.08;;
26864;SDS011;40618;51.166;10.322;2023-11-21T03:31:41;24.75;;;3.58;;
26864;SDS011;40618;51.166;10.322;2023-11-21T03:34:10;18.35;;;3.22;;
26864;SDS011;40618;51.166;10.322;2023-11-21T03:36:41;13.35;;;3.08;;
26864;SDS011;40618;51.166;10.322;2023-11-21T03:39:07;13.55;;;3.80;;
26864;SDS011;40618;51.166;10.322;2023-11-21T03:41:32;3.92;;;2.95;;
26864;SDS011;40618;51.166;10.322;2023-11-21T03:43:59;6.55;;;3.15;;
26864;SDS011;40618;51.166;10.322;2023-11-21T03:46:24;3.88;;;2.92;;
26864;SDS011;40618;51.166;10.322;2023-11-21T03:48:50;9.10;;;2.53;;
26864;SDS011;40618;51.166;10.322;2023-11-21T03:51:16;5.57;;;2.70;;
26864;SDS011;40618;51.166;10.322;2023-11-21T03:53:41;3.83;;;2.42;;
26864;SDS011;40618;51.166;10.322;2023-11-21T03:56:07;4.43;;;2.53;;
26864;SDS011;40618;51.166;10.322;2023-11-21T03:58:33;6.07;;;2.47;;
26864;SDS011;40618;51.166;10.322;2023-11-21T04:00:59;7.15;;;2.58;;
26864;SDS011;40618;51.166;10.322;2023-11-21T04:03:24;6.22;;;2.30;;
26864;SDS011;40618;51.166;10.322;2023-11-21T04:05:50;2.83;;;1.90;;
26864;SDS011;40618;51.166;10.322;2023-11-21T04:08:15;3.38;;;1.75;;
26864;SDS011;40618;51.166;10.322;2023-11-21T04:10:41;4.25;;;1.73;;
26864;SDS011;40618;51.166;10.322;2023-11-21T04:13:07;3.10;;;1.88;;
26864;SDS011;40618;51.166;10.322;2023-11-21T04:15:32;3.75;;;1.95;;
26864;SDS011;40618;51.166;10.322;2023-11-21T04:17:58;2.50;;;1.88;;
26864;SDS011;40618;51.166;10.322;2023-11-21T04:20:24;2.72;;;2.03;;
26864;SDS011;40618;51.166;10.322;2023-11-21T04:22:50;3.58;;;1.95;;
26864;SDS011;40618;51.166;10.322;2023-11-21T04:25:16;2.88;;;2.00;;
26864;SDS011;40618;51.166;10.322;2023-11-21T04:27:42;4.97;;;2.75;;
26864;SDS011;40618;51.166;10.322;2023-11-21T04:30:10;3.85;;;2.40;;
26864;SDS011;40618;51.166;10.322;2023-11-21T04:32:37;5.38;;;2.13;;
26864;SDS011;40618;51.166;10.322;2023-11-21T04:35:04;4.20;;;2.40;;
26864;SDS011;40618;51.166;10.322;2023-11-21T04:37:30;2.97;;;2.30;;
26864;SDS011;40618;51.166;10.322;2023-11-21T04:39:56;3.33;;;2.67;;
26864;SDS011;40618;51.166;10.322;2023-11-21T04:42:21;3.70;;;2.67;;
26864;SDS011;40618;51.166;10.322;2023-11-21T04:44:48;6.72;;;3.45;;
26864;SDS011;40618;51.166;10.322;2023-11-21T04:47:14;8.60;;;3.85;;
26864;SDS011;40618;51.166;10.322;2023-11-21T04:49:43;5.95;;;2.95;;
26864;SDS011;40618;51.166;10.322;2023-11-21T04:52:11;20.15;;;3.17;;
26864;SDS011;40618;51.166;10.322;2023-11-21T04:54:37;5.07;;;2.70;;
26864;SDS011;40618;51.166;10.322;2023-11-21T04:57:04;18.27;;;3.17;;
26864;SDS011;40618;51.166;10.322;2023-11-21T04:59:32;13.05;;;2.97;;
26864;SDS011;40618;51.166;10.322;2023-11-21T05:01:59;5.70;;;3.03;;
26864;SDS011;40618;51.166;10.322;2023-11-21T05:04:25;10.38;;;3.35;;
26864;SDS011;40618;51.166;10.322;2023-11-21T05:06:51;8.88;;;3.22;;
26864;SDS011;40618;51.166;10.322;2023-11-21T05:09:16;7.78;;;3.53;;
26864;SDS011;40618;51.166;10.322;2023-11-21T05:11:42;5.25;;;3.30;;
26864;SDS011;40618;51.166;10.322;2023-11-21T05:14:08;7.97;;;3.42;;
26864;SDS011;40618;51.166;10.322;2023-11-21T05:16:33;8.70;;;4.53;;
26864;SDS011;40618;51.166;10.322;2023-11-21T05:19:00;22.80;;;4.53;;
26864;SDS011;40618;51.166;10.322;2023-11-21T05:21:26;9.82;;;4.07;;
26864;SDS011;40618;51.166;10.322;2023-11-21T05:23:54;6.10;;;4.22;;
26864;SDS011;40618;51.166;10.322;2023-11-21T05:26:20;12.35;;;4.35;;
26864;SDS011;40618;51.166;10.322;2023-11-21T05:28:45;5.82;;;3.97;;
26864;SDS011;40618;51.166;10.322;2023-11-21T05:31:11;11.70;;;3.80;;
26864;SDS011;40618;51.166;10.322;2023-11-21T05:33:37;9.35;;;3.78;;
26864;SDS011;40618;51.166;10.322;2023-11-21T05:36:02;7.05;;;3.72;;
26864;SDS011;40618;51.166;10.322;2023-11-21T05:38:28;10.18;;;3.85;;
26864;SDS011;40618;51.166;10.322;2023-11-21T05:40:54;6.63;;;4.10;;
26864;SDS011;40618;51.166;10.322;2023-11-21T05:43:20;10.32;;;4.95;;
26864;SDS011;40618;51.166;10.322;2023-11-21T05:45:45;9.23;;;4.68;;
26864;SDS011;40618;51.166;10.322;2023-11-21T05:48:11;12.95;;;3.35;;
26864;SDS011;40618;51.166;10.322;2023-11-21T05:50:37;4.53;;;3.28;;
26864;SDS011;40618;51.166;10.322;2023-11-21T05:53:03;4.88;;;2.80;;
26864;SDS011;40618;51.166;10.322;2023-11-21T05:55:29;6.88;;;3.10;;
26864;SDS011;40618;51.166;10.322;2023-11-21T05:57:55;4.18;;;3.00;;
26864;SDS011;40618;51.166;10.322;2023-11-21T06:00:20;5.60;;;3.47;;
26864;SDS011;40618;51.166;10.322;2023-11-21T06:02:51;6.72;;;3.13;;
26864;SDS011;40618;51.166;10.322;2023-11-21T06:05:18;11.40;;;3.47;;
26864;SDS011;40618;51.166;10.322;2023-11-21T06:07:48;8.68;;;3.65;;
26864;SDS011;40618;51.166;10.322;2023-11-21T06:10:14;14.43;;;3.85;;
26864;SDS011;40618;51.166;10.322;2023-11-21T06:12:42;8.63;;;3.67;;
26864;SDS011;40618;51.166;10.322;2023-11-21T06:15:09;6.13;;;3.80;;
26864;SDS011;40618;51.166;10.322;2023-11-21T06:17:38;7.05;;;3.63;;
26864;SDS011;40618;51.166;10.322;2023-11-21T06:20:05;15.80;;;4.38;;
26864;SDS011;40618;51.166;10.322;2023-11-21T06:22:39;12.23;;;4.53;;
26864;SDS011;40618;51.166;10.322;2023-11-21T06:25:08;17.75;;;4.75;;
26864;SDS011;40618;51.166;10.322;2023-11-21T06:27:38;15.65;;;4.93;;
26864;SDS011;40618;51.166;10.322;2023-11-21T06:30:09;11.57;;;4.47;;
26864;SDS011;40618;51.166;10.322;2023-11-21T06:32:36;26.10;;;7.97;;
26864;SDS011;40618;51.166;10.322;2023-11-21T06:35:04;16.13;;;6.50;;
26864;SDS011;40618;51.166;10.322;2023-11-21T06:37:32;12.27;;;5.40;;
26864;SDS011;40618;51.166;10.322;2023-11-21T06:39:58;20.35;;;6.10;;
26864;SDS011;40618;51.166;10.322;2023-11-21T06:42:25;15.48;;;5.57;;
26864;SDS011;40618;51.166;10.322;2023-11-21T06:44:51;20.83;;;5.72;;
26864;SDS011;40618;51.166;10.322;2023-11-21T06:47:18;22.15;;;7.75;;
26864;SDS011;40618;51.166;10.322;2023-11-21T06:49:47;16.88;;;7.70;;
26864;SDS011;40618;51.166;10.322;2023-11-21T06:52:15;16.75;;;6.43;;
26864;SDS011;40618;51.166;10.322;2023-11-21T06:54:41;14.63;;;6.65;;
26864;SDS011;40618;51.166;10.322;2023-11-21T06:57:07;18.55;;;6.15;;
26864;SDS011;40618;51.166;10.322;2023-11-21T06:59:33;29.05;;;5.82;;
26864;SDS011;40618;51.166;10.322;2023-11-21T07:01:59;12.05;;;4.88;;
26864;SDS011;40618;51.166;10.322;2023-11-21T07:04:25;29.08;;;5.18;;
26864;SDS011;40618;51.166;10.322;2023-11-21T07:06:53;20.10;;;4.85;;
26864;SDS011;40618;51.166;10.322;2023-11-21T07:09:19;22.55;;;4.72;;
26864;SDS011;40618;51.166;10.322;2023-11-21T07:11:50;24.67;;;4.88;;
26864;SDS011;40618;51.166;10.322;2023-11-21T07:14:17;16.23;;;4.15;;
26864;SDS011;40618;51.166;10.322;2023-11-21T07:16:44;8.95;;;4.43;;
26864;SDS011;40618;51.166;10.322;2023-11-21T07:19:11;12.50;;;3.92;;
26864;SDS011;40618;51.166;10.322;2023-11-21T07:21:37;8.68;;;3.25;;
26864;SDS011;40618;51.166;10.322;2023-11-21T07:24:07;4.65;;;3.10;;
26864;SDS011;40618;51.166;10.322;2023-11-21T07:26:33;7.13;;;4.32;;
26864;SDS011;40618;51.166;10.322;2023-11-21T07:29:03;8.45;;;4.57;;
26864;SDS011;40618;51.166;10.322;2023-11-21T07:31:29;14.60;;;6.68;;
26864;SDS011;40618;51.166;10.322;2023-11-21T07:33:55;15.65;;;7.65;;
26864;SDS011;40618;51.166;10.322;2023-11-21T07:36:24;7.68;;;5.82;;
26864;SDS011;40618;51.166;10.322;2023-11-21T07:38:50;16.10;;;6.47;;
26864;SDS011;40618;51.166;10.322;2023-11-21T07:41:17;8.88;;;5.40;;
26864;SDS011;40618;51.166;10.322;2023-11-21T07:43:46;6.68;;;4.80;;
26864;SDS011;40618;51.166;10.322;2023-11-21T07:46:12;14.05;;;8.75;;
26864;SDS011;40618;51.166;10.322;2023-11-21T07:48:39;21.05;;;11.98;;
26864;SDS011;40618;51.166;10.322;2023-11-21T07:51:07;15.15;;;9.90;;
26864;SDS011;40618;51.166;10.322;2023-11-21T07:53:33;20.10;;;11.25;;
26864;SDS011;40618;51.166;10.322;2023-11-21T07:56:03;25.35;;;13.40;;
26864;SDS011;40618;51.166;10.322;2023-11-21T07:58:31;24.25;;;12.95;;
26864;SDS011;40618;51.166;10.322;2023-11-21T08:00:58;17.77;;;11.00;;
26864;SDS011;40618;51.166;10.322;2023-11-21T08:03:25;13.13;;;7.95;;
26864;SDS011;40618;51.166;10.322;2023-11-21T08:05:57;10.18;;;6.50;;
26864;SDS011;40618;51.166;10.322;2023-11-21T08:08:24;14.00;;;7.65;;
26864;SDS011;40618;51.166;10.322;2023-11-21T08:10:50;30.42;;;13.32;;
26864;SDS011;40618;51.166;10.322;2023-11-21T08:13:25;17.38;;;9.38;;
26864;SDS011;40618;51.166;10.322;2023-11-21T08:15:57;14.48;;;6.30;;
26864;SDS011;40618;51.166;10.322;2023-11-21T08:18:27;18.92;;;8.68;;
26864;SDS011;40618;51.166;10.322;2023-11-21T08:20:54;15.88;;;7.95;;
26864;SDS011;40618;51.166;10.322;2023-11-21T08:23:20;9.48;;;5.75;;
26864;SDS011;40618;51.166;10.322;2023-11-21T08:25:50;11.15;;;5.95;;
26864;SDS011;40618;51.166;10.322;2023-11-21T08:28:16;7.50;;;4.82;;
26864;SDS011;40618;51.166;10.322;2023-11-21T08:30:42;10.23;;;5.40;;
26864;SDS011;40618;51.166;10.322;2023-11-21T08:33:08;8.05;;;4.82;;
26864;SDS011;40618;51.166;10.322;2023-11-21T08:35:34;11.63;;;8.05;;
26864;SDS011;40618;51.166;10.322;2023-11-21T08:38:02;9.85;;;6.03;;
26864;SDS011;40618;51.166;10.322;2023-11-21T08:40:28;7.78;;;5.10;;
26864;SDS011;40618;51.166;10.322;2023-11-21T08:42:54;7.78;;;4.43;;
26864;SDS011;40618;51.166;10.322;2023-11-21T08:45:21;10.57;;;6.05;;
26864;SDS011;40618;51.166;10.322;2023-11-21T08:47:47;11.43;;;6.32;;
26864;SDS011;40618;51.166;10.322;2023-11-21T08:50:13;17.88;;;9.50;;
26864;SDS011;40618;51.166;10.322;2023-11-21T08:52:40;14.40;;;8.00;;
26864;SDS011;40618;51.166;10.322;2023-11-21T08:55:07;12.93;;;6.38;;
26864;SDS011;40618;51.166;10.322;2023-11-21T08:57:34;8.45;;;5.35;;
26864;SDS011;40618;51.166;10.322;2023-11-21T09:00:01;10.70;;;6.00;;
26864;SDS011;40618;51.166;10.322;2023-11-21T09:02:35;9.23;;;5.88;;
26864;SDS011;40618;51.166;10.322;2023-11-21T09:05:02;10.02;;;5.05;;
26864;SDS011;40618;51.166;10.322;2023-11-21T09:07:29;10.23;;;5.10;;
26864;SDS011;40618;51.166;10.322;2023-11-21T09:09:55;10.20;;;5.28;;
26864;SDS011;40618;51.166;10.322;2023-11-21T09:12:21;9.90;;;5.53;;
26864;SDS011;40618;51.166;10.322;2023-11-21T09:14:47;9.90;;;5.28;;
26864;SDS011;40618;51.166;10.322;2023-11-21T09:17:12;8.73;;;5.05;;
26864;SDS011;40618;51.166;10.322;2023-11-21T09:19:39;10.48;;;5.93;;
26864;SDS011;40618;51.166;10.322;2023-11-21T09:22:06;11.45;;;7.10;;
26864;SDS011;40618;51.166;10.322;2023-11-21T09:24:32;15.02;;;10.02;;
26864;SDS011;40618;51.166;10.322;2023-11-21T09:26:59;16.35;;;9.10;;
26864;SDS011;40618;51.166;10.322;2023-11-21T09:29:25;11.63;;;7.68;;
26864;SDS011;40618;51.166;10.322;2023-11-21T09:31:54;10.15;;;6.93;;
26864;SDS011;40618;51.166;10.322;2023-11-21T09:34:24;11.00;;;5.65;;
26864;SDS011;40618;51.166;10.322;2023-11-21T09:36:50;15.45;;;8.77;;
26864;SDS011;40618;51.166;10.322;2023-11-21T09:39:16;15.38;;;8.77;;
26864;SDS011;40618;51.166;10.322;2023-11-21T09:41:52;15.30;;;9.18;;
26864;SDS011;40618;51.166;10.322;2023-11-21T09:47:09;13.27;;;7.38;;
26864;SDS011;40618;51.166;10.322;2023-11-21T09:49:41;17.98;;;9.55;;
26864;SDS011;40618;51.166;10.322;2023-11-21T09:52:14;17.55;;;10.88;;
26864;SDS011;40618;51.166;10.322;2023-11-21T09:54:55;16.23;;;10.10;;
26864;SDS011;40618;51.166;10.322;2023-11-21T09:57:25;16.85;;;9.70;;
26864;SDS011;40618;51.166;10.322;2023-11-21T09:59:53;21.63;;;12.70;;
26864;SDS011;40618;51.166;10.322;2023-11-21T10:02:24;16.63;;;10.60;;
26864;SDS011;40618;51.166;10.322;2023-11-21T10:04:53;16.15;;;9.23;;
26864;SDS011;40618;51.166;10.322;2023-11-21T10:07:20;12.57;;;7.68;;
26864;SDS011;40618;51.166;10.322;2023-11-21T10:09:46;14.25;;;8.27;;
26864;SDS011;40618;51.166;10.322;2023-11-21T10:12:16;14.65;;;9.32;;
26864;SDS011;40618;51.166;10.322;2023-11-21T10:14:42;18.17;;;9.60;;
26864;SDS011;40618;51.166;10.322;2023-11-21T10:17:10;17.80;;;11.07;;
26864;SDS011;40618;51.166;10.322;2023-11-21T10:19:39;19.10;;;10.60;;
26864;SDS011;40618;51.166;10.322;2023-11-21T10:22:05;18.48;;;11.73;;
26864;SDS011;40618;51.166;10.322;2023-11-21T10:24:34;17.48;;;10.73;;
26864;SDS011;40618;51.166;10.322;2023-11-21T10:27:02;15.77;;;9.32;;
26864;SDS011;40618;51.166;10.322;2023-11-21T10:29:29;13.68;;;9.07;;
26864;SDS011;40618;51.166;10.322;2023-11-21T10:31:55;11.02;;;8.30;;
26864;SDS011;40618;51.166;10.322;2023-11-21T10:34:23;11.15;;;7.28;;
26864;SDS011;40618;51.166;10.322;2023-11-21T10:36:49;10.68;;;6.72;;
26864;SDS011;40618;51.166;10.322;2023-11-21T10:39:21;11.57;;;7.03;;
26864;SDS011;40618;51.166;10.322;2023-11-21T10:41:49;13.27;;;7.18;;
26864;SDS011;40618;51.166;10.322;2023-11-21T10:44:18;11.38;;;7.28;;
26864;SDS011;40618;51.166;10.322;2023-11-21T10:46:55;10.75;;;6.97;;
26864;SDS011;40618;51.166;10.322;2023-11-21T10:49:21;16.90;;;9.93;;
26864;SDS011;40618;51.166;10.322;2023-11-21T10:51:50;13.35;;;8.10;;
26864;SDS011;40618;51.166;10.322;2023-11-21T10:54:18;10.07;;;6.70;;
26864;SDS011;40618;51.166;10.322;2023-11-21T10:56:50;9.00;;;6.40;;
26864;SDS011;40618;51.166;10.322;2023-11-21T10:59:22;8.68;;;5.93;;
26864;SDS011;40618;51.166;10.322;2023-11-21T11:01:50;11.02;;;6.47;;
26864;SDS011;40618;51.166;10.322;2023-11-21T11:04:18;10.80;;;6.43;;
26864;SDS011;40618;51.166;10.322;2023-11-21T11:06:45;8.18;;;6.18;;
26864;SDS011;40618;51.166;10.322;2023-11-21T11:09:19;7.38;;;5.93;;
26864;SDS011;40618;51.166;10.322;2023-11-21T11:11:45;9.82;;;6.25;;
26864;SDS011;40618;51.166;10.322;2023-11-21T11:14:12;7.55;;;5.78;;
26864;SDS011;40618;51.166;10.322;2023-11-21T11:16:39;6.63;;;4.80;;
26864;SDS011;40618;51.166;10.322;2023-11-21T11:19:06;6.28;;;4.85;;
26864;SDS011;40618;51.166;10.322;2023-11-21T11:21:56;6.63;;;4.75;;
26864;SDS011;40618;51.166;10.322;2023-11-21T11:33:43;4.77;;;3.73;;
26864;SDS011;40618;51.166;10.322;2023-11-21T11:36:37;5.22;;;3.65;;
26864;SDS011;40618;51.166;10.322;2023-11-21T11:42:13;6.15;;;3.42;;
26864;SDS011;40618;51.166;10.322;2023-11-21T11:47:23;5.32;;;3.40;;
26864;SDS011;40618;51.166;10.322;2023-11-21T11:55:12;7.00;;;3.40;;
26864;SDS011;40618;51.166;10.322;2023-11-21T11:57:46;3.70;;;2.85;;
26864;SDS011;40618;51.166;10.322;2023-11-21T12:02:46;3.75;;;2.60;;
26864;SDS011;40618;51.166;10.322;2023-11-21T12:05:20;5.18;;;3.78;;
26864;SDS011;40618;51.166;10.322;2023-11-21T12:07:51;5.05;;;3.78;;
26864;SDS011;40618;51.166;10.322;2023-11-21T12:10:25;3.85;;;3.05;;
26864;SDS011;40618;51.166;10.322;2023-11-21T12:13:06;4.07;;;2.90;;
26864;SDS011;40618;51.166;10.322;2023-11-21T12:15:35;6.85;;;3.25;;
26864;SDS011;40618;51.166;10.322;2023-11-21T12:18:02;4.40;;;3.58;;
26864;SDS011;40618;51.166;10.322;2023-11-21T12:20:28;4.07;;;3.17;;
26864;SDS011;40618;51.166;10.322;2023-11-21T12:22:57;4.15;;;3.03;;
26864;SDS011;40618;51.166;10.322;2023-11-21T12:25:25;2.67;;;2.35;;
26864;SDS011;40618;51.166;10.322;2023-11-21T12:27:56;5.63;;;3.22;;
26864;SDS011;40618;51.166;10.322;2023-11-21T12:30:25;6.20;;;3.28;;
26864;SDS011;40618;51.166;10.322;2023-11-21T12:32:55;3.50;;;3.00;;
26864;SDS011;40618;51.166;10.322;2023-11-21T12:35:24;2.50;;;1.95;;
26864;SDS011;40618;51.166;10.322;2023-11-21T12:37:56;3.40;;;2.00;;
26864;SDS011;40618;51.166;10.322;2023-11-21T12:40:25;2.70;;;2.10;;
26864;SDS011;40618;51.166;10.322;2023-11-21T12:42:52;2.70;;;1.83;;
26864;SDS011;40618;51.166;10.322;2023-11-21T12:45:21;1.58;;;1.40;;
26864;SDS011;40618;51.166;10.322;2023-11-21T12:47:51;1.75;;;1.50;;
26864;SDS011;40618;51.166;10.322;2023-11-21T12:50:20;1.70;;;1.37;;
26864;SDS011;40618;51.166;10.322;2023-11-21T12:52:49;1.40;;;1.30;;
26864;SDS011;40618;51.166;10.322;2023-11-21T12:55:17;1.58;;;1.33;;
26864;SDS011;40618;51.166;10.322;2023-11-21T12:57:47;1.80;;;1.67;;
26864;SDS011;40618;51.166;10.322;2023-11-21T13:00:20;1.30;;;1.10;;
26864;SDS011;40618;51.166;10.322;2023-11-21T13:02:54;2.00;;;1.27;;
26864;SDS011;40618;51.166;10.322;2023-11-21T13:05:26;1.13;;;1.02;;
26864;SDS011;40618;51.166;10.322;2023-11-21T13:08:16;1.17;;;1.02;;
26864;SDS011;40618;51.166;10.322;2023-11-21T13:10:46;1.60;;;1.30;;
26864;SDS011;40618;51.166;10.322;2023-11-21T13:13:15;2.80;;;1.35;;
26864;SDS011;40618;51.166;10.322;2023-11-21T13:15:50;1.48;;;1.38;;
26864;SDS011;40618;51.166;10.322;2023-11-21T13:18:26;1.67;;;1.25;;
26864;SDS011;40618;51.166;10.322;2023-11-21T13:20:57;2.03;;;1.30;;
26864;SDS011;40618;51.166;10.322;2023-11-21T13:23:25;1.10;;;1.00;;
26864;SDS011;40618;51.166;10.322;2023-11-21T13:25:52;1.10;;;1.00;;
26864;SDS011;40618;51.166;10.322;2023-11-21T13:28:18;0.68;;;0.57;;
26864;SDS011;40618;51.166;10.322;2023-11-21T13:30:46;0.95;;;0.70;;
26864;SDS011;40618;51.166;10.322;2023-11-21T13:33:13;1.15;;;0.80;;
26864;SDS011;40618;51.166;10.322;2023-11-21T13:35:46;0.70;;;0.52;;
26864;SDS011;40618;51.166;10.322;2023-11-21T13:38:15;0.93;;;0.80;;
26864;SDS011;40618;51.166;10.322;2023-11-21T13:40:50;1.40;;;1.20;;
26864;SDS011;40618;51.166;10.322;2023-11-21T13:43:19;1.42;;;1.25;;
26864;SDS011;40618;51.166;10.322;2023-11-21T13:45:49;4.57;;;3.10;;
26864;SDS011;40618;51.166;10.322;2023-11-21T13:48:23;3.47;;;2.22;;
26864;SDS011;40618;51.166;10.322;2023-11-21T13:51:12;2.38;;;1.95;;
26864;SDS011;40618;51.166;10.322;2023-11-21T13:53:42;2.23;;;1.93;;
26864;SDS011;40618;51.166;10.322;2023-11-21T13:56:18;3.15;;;1.88;;
26864;SDS011;40618;51.166;10.322;2023-11-21T13:58:49;3.22;;;2.33;;
26864;SDS011;40618;51.166;10.322;2023-11-21T14:01:21;2.63;;;1.88;;
26864;SDS011;40618;51.166;10.322;2023-11-21T14:03:49;2.53;;;1.80;;
26864;SDS011;40618;51.166;10.322;2023-11-21T14:06:21;1.90;;;1.60;;
26864;SDS011;40618;51.166;10.322;2023-11-21T14:08:52;4.57;;;3.33;;
26864;SDS011;40618;51.166;10.322;2023-11-21T14:11:22;8.43;;;6.20;;
26864;SDS011;40618;51.166;10.322;2023-11-21T14:13:47;5.63;;;3.22;;
26864;SDS011;40618;51.166;10.322;2023-11-21T14:16:14;3.47;;;2.13;;
26864;SDS011;40618;51.166;10.322;2023-11-21T14:18:42;1.95;;;1.70;;
26864;SDS011;40618;51.166;10.322;2023-11-21T14:21:20;1.70;;;1.60;;
26864;SDS011;40618;51.166;10.322;2023-11-21T14:23:46;1.20;;;1.10;;
26864;SDS011;40618;51.166;10.322;2023-11-21T14:26:13;1.52;;;1.42;;
26864;SDS011;40618;51.166;10.322;2023-11-21T14:28:40;1.40;;;1.30;;
26864;SDS011;40618;51.166;10.322;2023-11-21T14:31:07;1.70;;;1.60;;
26864;SDS011;40618;51.166;10.322;2023-11-21T14:33:38;2.35;;;2.00;;
26864;SDS011;40618;51.166;10.322;2023-11-21T14:36:05;2.58;;;2.30;;
26864;SDS011;40618;51.166;10.322;2023-11-21T14:38:35;3.00;;;2.28;;
26864;SDS011;40618;51.166;10.322;2023-11-21T14:41:02;3.38;;;2.70;;
26864;SDS011;40618;51.166;10.322;2023-11-21T14:43:29;4.70;;;2.83;;
26864;SDS011;40618;51.166;10.322;2023-11-21T14:45:59;4.25;;;2.95;;
26864;SDS011;40618;51.166;10.322;2023-11-21T14:48:24;6.90;;;3.75;;
26864;SDS011;40618;51.166;10.322;2023-11-21T14:51:08;18.25;;;14.15;;
26864;SDS011;40618;51.166;10.322;2023-11-21T14:53:55;10.18;;;8.43;;
26864;SDS011;40618;51.166;10.322;2023-11-21T14:56:46;6.63;;;5.20;;
26864;SDS011;40618;51.166;10.322;2023-11-21T14:59:12;5.45;;;4.78;;
26864;SDS011;40618;51.166;10.322;2023-11-21T15:01:41;11.82;;;7.28;;